Lexington, KY

7:46 AM EST on December 09, 2016 (GMT -0500)
The Island Weather | | Change Station
Active Advisory: Special Statement

Elev 968 ft 38.00 °N, 84.46 °W | Updated 1 second ago

Overcast
Overcast
20.7 °F
Feels Like 21 °F
N
2.0
Wind Variable Wind from West

Today
High -- | Low -- °F
--% Chance of Precip.
Yesterday
High -- | Low -- °F
Precip. -- in
Pressure 30.56 in
Visibility 10.0 miles
Clouds Overcast 2700 ft
Windchill 21 °F
Dew Point 20 °F
Humidity 98%
Rainfall 0.00 in
Snow Depth Not available.
7:42 AM 5:18 PM
Waxing Gibbous, 73% visible
METAR KLEX 091154Z 28007KT 10SM OVC027 M06/M11 A3052 RMK AO2 SNE42 SLP346 P0000 60000 T10611111 11044 21061 53010 $
Pressure 30.56 in
Visibility 10.0 miles
Clouds Overcast 2700 ft
Windchill 21 °F
Dew Point 20 °F
Humidity 98%
Rainfall 0.00 in
Snow Depth Not available.
7:42 AM 5:18 PM
Waxing Gibbous, 73% visible
METAR KLEX 091154Z 28007KT 10SM OVC027 M06/M11 A3052 RMK AO2 SNE42 SLP346 P0000 60000 T10611111 11044 21061 53010 $

10-Day Weather Forecast

Almanac

Astronomy

Dec. 09, 2016 Rise Set
Actual Time
Civil Twilight
Nautical Twilight
Astronomical Twilight
Moon
Length of Visible Light
Length of Day
Tomorrow will be .
, % of the Moon is Illuminated

Today's Extremes

State Highs State Lows

Community

WunderPhotos

Upload Photos

1,956,407 photos uploaded!

WunderBlog® & News

Nearby

Air Quality

  Air Quality AQ Index Pollutant
Not available.

Snow Depth

Station Depth Elevation

Earthquake Activity

City Distance Mag. Time & Date
Minimum magnitude displayed is 2.5.

Coastal Water Temperatures

Place Temperature

Stations

Nearby Weather Stations

Station Location Temp. Windchill Dew Point Humidity Wind Precip. Elev Updated Type
                   

Watches & Warnings

Special Statement
Issued: 2:44 AM CST Dec. 9, 2016 – National Weather Service

... A light dusting of snow possible this morning...

Flurries and isolated snow showers over the region were creating a
dusting of snow in some areas. This light coating of snow could
create some slick spots for the morning commute. Drivers should
slow down and use caution on snowy roads.


Ams


344 am EST Fri Dec 9 2016 /244 am CST Fri Dec 9 2016/

... A light dusting of snow possible this morning...

Flurries and isolated snow showers over the region were creating a
dusting of snow in some areas. This light coating of snow could
create some slick spots for the morning commute. Drivers should
slow down and use caution on snowy roads.


Ams

344 am EST Fri Dec 9 2016 /244 am CST Fri Dec 9 2016/

... A light dusting of snow possible this morning...

Flurries and isolated snow showers over the region were creating a
dusting of snow in some areas. This light coating of snow could
create some slick spots for the morning commute. Drivers should
slow down and use caution on snowy roads.


Ams